sensor_id;sensor_type;location;lat;lon;timestamp;P1;durP1;ratioP1;P2;durP2;ratioP2
81938;SDS011;71437;42.018;21.354;2023-07-13T00:00:40;9.90;;;6.03;;
81938;SDS011;71437;42.018;21.354;2023-07-13T00:03:06;12.48;;;5.38;;
81938;SDS011;71437;42.018;21.354;2023-07-13T00:05:33;10.65;;;5.43;;
81938;SDS011;71437;42.018;21.354;2023-07-13T00:07:59;12.25;;;5.35;;
81938;SDS011;71437;42.018;21.354;2023-07-13T00:10:25;11.38;;;5.53;;
81938;SDS011;71437;42.018;21.354;2023-07-13T00:12:51;11.43;;;5.57;;
81938;SDS011;71437;42.018;21.354;2023-07-13T00:15:21;8.35;;;5.07;;
81938;SDS011;71437;42.018;21.354;2023-07-13T00:17:54;8.60;;;4.82;;
81938;SDS011;71437;42.018;21.354;2023-07-13T00:20:22;10.27;;;5.60;;
81938;SDS011;71437;42.018;21.354;2023-07-13T00:22:50;9.60;;;5.50;;
81938;SDS011;71437;42.018;21.354;2023-07-13T00:25:17;10.60;;;5.88;;
81938;SDS011;71437;42.018;21.354;2023-07-13T00:27:44;10.38;;;6.00;;
81938;SDS011;71437;42.018;21.354;2023-07-13T00:30:10;10.15;;;5.68;;
81938;SDS011;71437;42.018;21.354;2023-07-13T00:32:37;13.68;;;5.68;;
81938;SDS011;71437;42.018;21.354;2023-07-13T00:35:03;11.60;;;5.95;;
81938;SDS011;71437;42.018;21.354;2023-07-13T00:37:30;12.30;;;6.10;;
81938;SDS011;71437;42.018;21.354;2023-07-13T00:39:56;12.00;;;6.55;;
81938;SDS011;71437;42.018;21.354;2023-07-13T00:42:22;11.93;;;5.22;;
81938;SDS011;71437;42.018;21.354;2023-07-13T00:47:47;13.07;;;5.40;;
81938;SDS011;71437;42.018;21.354;2023-07-13T00:50:13;9.77;;;6.03;;
81938;SDS011;71437;42.018;21.354;2023-07-13T00:52:42;10.93;;;6.00;;
81938;SDS011;71437;42.018;21.354;2023-07-13T00:55:09;13.85;;;5.97;;
81938;SDS011;71437;42.018;21.354;2023-07-13T00:57:35;9.98;;;5.45;;
81938;SDS011;71437;42.018;21.354;2023-07-13T01:00:03;11.63;;;5.65;;
81938;SDS011;71437;42.018;21.354;2023-07-13T01:02:34;13.43;;;5.75;;
81938;SDS011;71437;42.018;21.354;2023-07-13T01:05:01;10.82;;;5.75;;
81938;SDS011;71437;42.018;21.354;2023-07-13T01:07:27;9.30;;;5.75;;
81938;SDS011;71437;42.018;21.354;2023-07-13T01:09:53;10.90;;;5.18;;
81938;SDS011;71437;42.018;21.354;2023-07-13T01:12:19;11.25;;;5.43;;
81938;SDS011;71437;42.018;21.354;2023-07-13T01:17:48;9.80;;;5.60;;
81938;SDS011;71437;42.018;21.354;2023-07-13T01:20:14;9.65;;;5.78;;
81938;SDS011;71437;42.018;21.354;2023-07-13T01:22:41;11.55;;;5.60;;
81938;SDS011;71437;42.018;21.354;2023-07-13T01:25:07;8.55;;;5.20;;
81938;SDS011;71437;42.018;21.354;2023-07-13T01:27:33;11.40;;;5.93;;
81938;SDS011;71437;42.018;21.354;2023-07-13T01:30:00;8.88;;;5.38;;
81938;SDS011;71437;42.018;21.354;2023-07-13T01:32:29;9.52;;;5.38;;
81938;SDS011;71437;42.018;21.354;2023-07-13T01:34:56;10.95;;;6.10;;
81938;SDS011;71437;42.018;21.354;2023-07-13T01:37:23;8.18;;;5.22;;
81938;SDS011;71437;42.018;21.354;2023-07-13T01:39:49;9.23;;;5.65;;
81938;SDS011;71437;42.018;21.354;2023-07-13T01:42:15;10.65;;;6.03;;
81938;SDS011;71437;42.018;21.354;2023-07-13T01:44:41;17.60;;;6.05;;
81938;SDS011;71437;42.018;21.354;2023-07-13T01:47:08;16.48;;;6.15;;
81938;SDS011;71437;42.018;21.354;2023-07-13T01:49:34;11.65;;;5.82;;
81938;SDS011;71437;42.018;21.354;2023-07-13T01:52:00;10.05;;;5.60;;
81938;SDS011;71437;42.018;21.354;2023-07-13T01:54:26;9.50;;;6.00;;
81938;SDS011;71437;42.018;21.354;2023-07-13T01:56:52;8.68;;;5.22;;
81938;SDS011;71437;42.018;21.354;2023-07-13T01:59:18;10.93;;;5.05;;
81938;SDS011;71437;42.018;21.354;2023-07-13T02:01:44;10.45;;;5.35;;
81938;SDS011;71437;42.018;21.354;2023-07-13T02:04:10;8.88;;;5.57;;
81938;SDS011;71437;42.018;21.354;2023-07-13T02:06:36;9.63;;;5.00;;
81938;SDS011;71437;42.018;21.354;2023-07-13T02:09:02;11.30;;;4.93;;
81938;SDS011;71437;42.018;21.354;2023-07-13T02:11:28;10.70;;;5.22;;
81938;SDS011;71437;42.018;21.354;2023-07-13T02:13:59;9.75;;;4.82;;
81938;SDS011;71437;42.018;21.354;2023-07-13T02:16:25;8.88;;;5.38;;
81938;SDS011;71437;42.018;21.354;2023-07-13T02:18:51;10.27;;;4.90;;
81938;SDS011;71437;42.018;21.354;2023-07-13T02:21:18;12.32;;;5.43;;
81938;SDS011;71437;42.018;21.354;2023-07-13T02:23:44;10.32;;;5.32;;
81938;SDS011;71437;42.018;21.354;2023-07-13T02:26:10;9.48;;;5.13;;
81938;SDS011;71437;42.018;21.354;2023-07-13T02:28:36;8.02;;;5.03;;
81938;SDS011;71437;42.018;21.354;2023-07-13T02:31:09;8.55;;;5.13;;
81938;SDS011;71437;42.018;21.354;2023-07-13T02:33:36;11.38;;;5.80;;
81938;SDS011;71437;42.018;21.354;2023-07-13T02:36:02;11.05;;;5.40;;
81938;SDS011;71437;42.018;21.354;2023-07-13T02:38:30;10.40;;;5.30;;
81938;SDS011;71437;42.018;21.354;2023-07-13T02:40:58;12.63;;;6.22;;
81938;SDS011;71437;42.018;21.354;2023-07-13T02:43:25;9.35;;;5.53;;
81938;SDS011;71437;42.018;21.354;2023-07-13T02:45:51;10.52;;;5.82;;
81938;SDS011;71437;42.018;21.354;2023-07-13T02:48:17;11.07;;;5.63;;
81938;SDS011;71437;42.018;21.354;2023-07-13T02:50:43;9.50;;;5.35;;
81938;SDS011;71437;42.018;21.354;2023-07-13T02:53:10;10.50;;;5.68;;
81938;SDS011;71437;42.018;21.354;2023-07-13T02:55:36;10.15;;;5.30;;
81938;SDS011;71437;42.018;21.354;2023-07-13T02:58:02;10.02;;;6.13;;
81938;SDS011;71437;42.018;21.354;2023-07-13T03:00:29;10.00;;;5.60;;
81938;SDS011;71437;42.018;21.354;2023-07-13T03:02:55;12.63;;;5.90;;
81938;SDS011;71437;42.018;21.354;2023-07-13T03:05:23;10.68;;;5.80;;
81938;SDS011;71437;42.018;21.354;2023-07-13T03:07:49;11.38;;;5.50;;
81938;SDS011;71437;42.018;21.354;2023-07-13T03:10:15;9.35;;;5.82;;
81938;SDS011;71437;42.018;21.354;2023-07-13T03:12:41;9.50;;;5.15;;
81938;SDS011;71437;42.018;21.354;2023-07-13T03:15:07;8.50;;;5.50;;
81938;SDS011;71437;42.018;21.354;2023-07-13T03:17:34;9.23;;;6.03;;
81938;SDS011;71437;42.018;21.354;2023-07-13T03:20:00;10.05;;;5.68;;
81938;SDS011;71437;42.018;21.354;2023-07-13T03:22:26;10.52;;;5.43;;
81938;SDS011;71437;42.018;21.354;2023-07-13T03:24:52;10.18;;;5.88;;
81938;SDS011;71437;42.018;21.354;2023-07-13T03:27:18;8.00;;;5.70;;
81938;SDS011;71437;42.018;21.354;2023-07-13T03:29:44;10.65;;;5.60;;
81938;SDS011;71437;42.018;21.354;2023-07-13T03:32:10;14.77;;;6.60;;
81938;SDS011;71437;42.018;21.354;2023-07-13T03:34:36;8.43;;;5.38;;
81938;SDS011;71437;42.018;21.354;2023-07-13T03:37:02;9.23;;;5.75;;
81938;SDS011;71437;42.018;21.354;2023-07-13T03:39:28;11.65;;;6.20;;
81938;SDS011;71437;42.018;21.354;2023-07-13T03:41:54;11.52;;;6.32;;
81938;SDS011;71437;42.018;21.354;2023-07-13T03:44:20;11.45;;;7.05;;
81938;SDS011;71437;42.018;21.354;2023-07-13T03:46:46;10.18;;;5.68;;
81938;SDS011;71437;42.018;21.354;2023-07-13T03:49:12;15.30;;;6.03;;
81938;SDS011;71437;42.018;21.354;2023-07-13T03:51:38;8.68;;;5.25;;
81938;SDS011;71437;42.018;21.354;2023-07-13T03:54:05;10.52;;;5.50;;
81938;SDS011;71437;42.018;21.354;2023-07-13T03:56:31;12.10;;;6.22;;
81938;SDS011;71437;42.018;21.354;2023-07-13T03:58:58;9.55;;;5.63;;
81938;SDS011;71437;42.018;21.354;2023-07-13T04:01:25;10.77;;;5.28;;
81938;SDS011;71437;42.018;21.354;2023-07-13T04:03:51;10.10;;;5.72;;
81938;SDS011;71437;42.018;21.354;2023-07-13T04:06:22;11.32;;;6.35;;
81938;SDS011;71437;42.018;21.354;2023-07-13T04:08:50;9.02;;;5.75;;
81938;SDS011;71437;42.018;21.354;2023-07-13T04:11:17;9.75;;;5.63;;
81938;SDS011;71437;42.018;21.354;2023-07-13T04:13:43;8.23;;;5.10;;
81938;SDS011;71437;42.018;21.354;2023-07-13T04:16:10;9.38;;;5.88;;
81938;SDS011;71437;42.018;21.354;2023-07-13T04:18:36;12.90;;;4.97;;
81938;SDS011;71437;42.018;21.354;2023-07-13T04:21:02;8.20;;;5.72;;
81938;SDS011;71437;42.018;21.354;2023-07-13T04:23:29;13.50;;;5.60;;
81938;SDS011;71437;42.018;21.354;2023-07-13T04:25:55;9.50;;;5.45;;
81938;SDS011;71437;42.018;21.354;2023-07-13T04:28:21;9.98;;;5.20;;
81938;SDS011;71437;42.018;21.354;2023-07-13T04:30:48;10.13;;;5.72;;
81938;SDS011;71437;42.018;21.354;2023-07-13T04:33:14;11.02;;;6.10;;
81938;SDS011;71437;42.018;21.354;2023-07-13T04:35:42;10.32;;;6.75;;
81938;SDS011;71437;42.018;21.354;2023-07-13T04:38:08;15.38;;;6.43;;
81938;SDS011;71437;42.018;21.354;2023-07-13T04:40:36;11.13;;;6.65;;
81938;SDS011;71437;42.018;21.354;2023-07-13T04:43:02;11.55;;;6.22;;
81938;SDS011;71437;42.018;21.354;2023-07-13T04:45:28;8.00;;;5.47;;
81938;SDS011;71437;42.018;21.354;2023-07-13T04:47:56;12.07;;;6.32;;
81938;SDS011;71437;42.018;21.354;2023-07-13T04:50:22;14.18;;;6.28;;
81938;SDS011;71437;42.018;21.354;2023-07-13T04:52:51;11.65;;;6.25;;
81938;SDS011;71437;42.018;21.354;2023-07-13T04:55:18;12.27;;;6.00;;
81938;SDS011;71437;42.018;21.354;2023-07-13T04:57:44;12.38;;;6.57;;
81938;SDS011;71437;42.018;21.354;2023-07-13T05:00:10;17.08;;;6.97;;
81938;SDS011;71437;42.018;21.354;2023-07-13T05:02:37;10.98;;;5.35;;
81938;SDS011;71437;42.018;21.354;2023-07-13T05:05:04;11.05;;;5.63;;
81938;SDS011;71437;42.018;21.354;2023-07-13T05:07:30;9.77;;;5.88;;
81938;SDS011;71437;42.018;21.354;2023-07-13T05:09:58;10.63;;;5.57;;
81938;SDS011;71437;42.018;21.354;2023-07-13T05:12:24;13.18;;;5.88;;
81938;SDS011;71437;42.018;21.354;2023-07-13T05:14:50;10.77;;;5.93;;
81938;SDS011;71437;42.018;21.354;2023-07-13T05:17:17;11.85;;;5.68;;
81938;SDS011;71437;42.018;21.354;2023-07-13T05:19:43;11.23;;;5.93;;
81938;SDS011;71437;42.018;21.354;2023-07-13T05:22:09;11.70;;;5.53;;
81938;SDS011;71437;42.018;21.354;2023-07-13T05:24:35;12.95;;;5.55;;
81938;SDS011;71437;42.018;21.354;2023-07-13T05:27:01;12.98;;;5.95;;
81938;SDS011;71437;42.018;21.354;2023-07-13T05:29:27;11.98;;;5.47;;
81938;SDS011;71437;42.018;21.354;2023-07-13T05:31:53;12.52;;;5.20;;
81938;SDS011;71437;42.018;21.354;2023-07-13T05:34:19;11.45;;;5.60;;
81938;SDS011;71437;42.018;21.354;2023-07-13T05:36:45;12.00;;;6.22;;
81938;SDS011;71437;42.018;21.354;2023-07-13T05:39:11;11.65;;;5.68;;
81938;SDS011;71437;42.018;21.354;2023-07-13T05:41:37;11.65;;;5.90;;
81938;SDS011;71437;42.018;21.354;2023-07-13T05:44:04;11.75;;;5.40;;
81938;SDS011;71437;42.018;21.354;2023-07-13T05:46:30;10.82;;;5.70;;
81938;SDS011;71437;42.018;21.354;2023-07-13T05:48:56;10.93;;;5.72;;
81938;SDS011;71437;42.018;21.354;2023-07-13T05:51:22;12.07;;;6.10;;
81938;SDS011;71437;42.018;21.354;2023-07-13T05:53:48;10.73;;;6.32;;
81938;SDS011;71437;42.018;21.354;2023-07-13T05:56:14;11.70;;;5.63;;
81938;SDS011;71437;42.018;21.354;2023-07-13T05:58:40;10.63;;;6.07;;
81938;SDS011;71437;42.018;21.354;2023-07-13T06:01:10;11.70;;;6.43;;
81938;SDS011;71437;42.018;21.354;2023-07-13T06:03:36;12.20;;;5.90;;
81938;SDS011;71437;42.018;21.354;2023-07-13T06:06:03;11.88;;;6.90;;
81938;SDS011;71437;42.018;21.354;2023-07-13T06:08:30;17.88;;;7.03;;
81938;SDS011;71437;42.018;21.354;2023-07-13T06:13:38;9.25;;;6.22;;
81938;SDS011;71437;42.018;21.354;2023-07-13T06:16:04;13.05;;;6.60;;
81938;SDS011;71437;42.018;21.354;2023-07-13T06:18:31;11.27;;;6.25;;
81938;SDS011;71437;42.018;21.354;2023-07-13T06:20:57;11.45;;;5.90;;
81938;SDS011;71437;42.018;21.354;2023-07-13T06:23:23;7.32;;;5.10;;
81938;SDS011;71437;42.018;21.354;2023-07-13T06:25:50;9.38;;;5.25;;
81938;SDS011;71437;42.018;21.354;2023-07-13T06:28:16;8.68;;;6.40;;
81938;SDS011;71437;42.018;21.354;2023-07-13T06:30:42;8.45;;;5.68;;
81938;SDS011;71437;42.018;21.354;2023-07-13T06:33:08;8.82;;;5.38;;
81938;SDS011;71437;42.018;21.354;2023-07-13T06:35:34;11.35;;;5.35;;
81938;SDS011;71437;42.018;21.354;2023-07-13T06:38:00;11.00;;;5.53;;
81938;SDS011;71437;42.018;21.354;2023-07-13T06:40:27;8.88;;;5.15;;
81938;SDS011;71437;42.018;21.354;2023-07-13T06:42:55;10.20;;;5.70;;
81938;SDS011;71437;42.018;21.354;2023-07-13T06:45:21;10.15;;;4.85;;
81938;SDS011;71437;42.018;21.354;2023-07-13T06:47:47;11.93;;;6.75;;
81938;SDS011;71437;42.018;21.354;2023-07-13T06:50:14;14.68;;;6.25;;
81938;SDS011;71437;42.018;21.354;2023-07-13T06:52:40;9.63;;;5.75;;
81938;SDS011;71437;42.018;21.354;2023-07-13T06:55:06;8.70;;;5.43;;
81938;SDS011;71437;42.018;21.354;2023-07-13T06:57:33;9.38;;;4.97;;
81938;SDS011;71437;42.018;21.354;2023-07-13T06:59:59;10.50;;;5.38;;
81938;SDS011;71437;42.018;21.354;2023-07-13T07:02:25;10.73;;;5.55;;
81938;SDS011;71437;42.018;21.354;2023-07-13T07:04:51;12.07;;;6.03;;
81938;SDS011;71437;42.018;21.354;2023-07-13T07:07:19;8.15;;;6.10;;
81938;SDS011;71437;42.018;21.354;2023-07-13T07:09:45;9.75;;;5.18;;
81938;SDS011;71437;42.018;21.354;2023-07-13T07:12:11;10.73;;;6.50;;
81938;SDS011;71437;42.018;21.354;2023-07-13T07:14:37;9.18;;;5.72;;
81938;SDS011;71437;42.018;21.354;2023-07-13T07:17:03;14.13;;;6.30;;
81938;SDS011;71437;42.018;21.354;2023-07-13T07:19:29;13.63;;;5.43;;
81938;SDS011;71437;42.018;21.354;2023-07-13T07:21:56;8.13;;;4.82;;
81938;SDS011;71437;42.018;21.354;2023-07-13T07:24:22;13.98;;;5.43;;
81938;SDS011;71437;42.018;21.354;2023-07-13T07:26:48;13.00;;;5.70;;
81938;SDS011;71437;42.018;21.354;2023-07-13T07:29:14;13.75;;;5.93;;
81938;SDS011;71437;42.018;21.354;2023-07-13T07:31:40;11.52;;;5.93;;
81938;SDS011;71437;42.018;21.354;2023-07-13T07:34:06;9.40;;;5.78;;
81938;SDS011;71437;42.018;21.354;2023-07-13T07:36:34;12.65;;;6.30;;
81938;SDS011;71437;42.018;21.354;2023-07-13T07:39:00;10.38;;;6.50;;
81938;SDS011;71437;42.018;21.354;2023-07-13T07:41:26;10.80;;;6.30;;
81938;SDS011;71437;42.018;21.354;2023-07-13T07:43:52;12.10;;;7.18;;
81938;SDS011;71437;42.018;21.354;2023-07-13T07:46:18;14.23;;;6.95;;
81938;SDS011;71437;42.018;21.354;2023-07-13T07:48:44;13.18;;;6.35;;
81938;SDS011;71437;42.018;21.354;2023-07-13T07:51:10;15.35;;;7.55;;
81938;SDS011;71437;42.018;21.354;2023-07-13T07:53:36;14.38;;;8.60;;
81938;SDS011;71437;42.018;21.354;2023-07-13T07:56:02;15.18;;;7.93;;
81938;SDS011;71437;42.018;21.354;2023-07-13T07:58:29;13.20;;;6.90;;
81938;SDS011;71437;42.018;21.354;2023-07-13T08:01:05;17.73;;;8.10;;
81938;SDS011;71437;42.018;21.354;2023-07-13T08:03:31;13.95;;;7.63;;
81938;SDS011;71437;42.018;21.354;2023-07-13T08:05:57;13.13;;;7.25;;
81938;SDS011;71437;42.018;21.354;2023-07-13T08:08:24;14.18;;;6.38;;
81938;SDS011;71437;42.018;21.354;2023-07-13T08:10:50;13.38;;;7.53;;
81938;SDS011;71437;42.018;21.354;2023-07-13T08:13:17;12.30;;;6.53;;
81938;SDS011;71437;42.018;21.354;2023-07-13T08:15:43;14.77;;;6.30;;
81938;SDS011;71437;42.018;21.354;2023-07-13T08:18:09;12.13;;;6.50;;
81938;SDS011;71437;42.018;21.354;2023-07-13T08:20:38;11.98;;;6.35;;
81938;SDS011;71437;42.018;21.354;2023-07-13T08:25:30;15.43;;;6.88;;
81938;SDS011;71437;42.018;21.354;2023-07-13T08:27:56;14.30;;;7.20;;
81938;SDS011;71437;42.018;21.354;2023-07-13T08:30:23;11.85;;;6.38;;
81938;SDS011;71437;42.018;21.354;2023-07-13T08:32:49;13.23;;;7.18;;
81938;SDS011;71437;42.018;21.354;2023-07-13T08:35:15;10.90;;;5.50;;
81938;SDS011;71437;42.018;21.354;2023-07-13T08:37:42;12.98;;;6.20;;
81938;SDS011;71437;42.018;21.354;2023-07-13T08:40:08;10.35;;;6.40;;
81938;SDS011;71437;42.018;21.354;2023-07-13T08:42:37;9.90;;;5.82;;
81938;SDS011;71437;42.018;21.354;2023-07-13T08:47:37;11.05;;;6.63;;
81938;SDS011;71437;42.018;21.354;2023-07-13T08:50:05;10.68;;;6.22;;
81938;SDS011;71437;42.018;21.354;2023-07-13T08:52:35;13.45;;;7.07;;
81938;SDS011;71437;42.018;21.354;2023-07-13T08:55:05;9.35;;;5.85;;
81938;SDS011;71437;42.018;21.354;2023-07-13T08:57:34;10.90;;;6.68;;
81938;SDS011;71437;42.018;21.354;2023-07-13T09:00:01;12.15;;;6.63;;
81938;SDS011;71437;42.018;21.354;2023-07-13T09:02:40;13.90;;;7.15;;
81938;SDS011;71437;42.018;21.354;2023-07-13T09:05:14;10.95;;;6.53;;
81938;SDS011;71437;42.018;21.354;2023-07-13T09:07:57;15.48;;;6.70;;
81938;SDS011;71437;42.018;21.354;2023-07-13T09:10:27;9.98;;;6.13;;
81938;SDS011;71437;42.018;21.354;2023-07-13T09:15:43;15.82;;;6.30;;
81938;SDS011;71437;42.018;21.354;2023-07-13T09:20:53;12.75;;;6.72;;
81938;SDS011;71437;42.018;21.354;2023-07-13T09:23:22;13.77;;;7.22;;
81938;SDS011;71437;42.018;21.354;2023-07-13T09:25:49;11.80;;;6.07;;
81938;SDS011;71437;42.018;21.354;2023-07-13T09:28:22;13.13;;;7.35;;
81938;SDS011;71437;42.018;21.354;2023-07-13T09:33:16;13.98;;;7.90;;
81938;SDS011;71437;42.018;21.354;2023-07-13T09:35:42;14.07;;;7.20;;
81938;SDS011;71437;42.018;21.354;2023-07-13T09:38:18;13.02;;;7.43;;
81938;SDS011;71437;42.018;21.354;2023-07-13T09:43:29;12.05;;;7.03;;
81938;SDS011;71437;42.018;21.354;2023-07-13T09:45:55;15.52;;;7.10;;
81938;SDS011;71437;42.018;21.354;2023-07-13T09:48:21;11.18;;;7.15;;
81938;SDS011;71437;42.018;21.354;2023-07-13T09:50:49;12.43;;;7.03;;
81938;SDS011;71437;42.018;21.354;2023-07-13T09:53:20;10.93;;;7.20;;
81938;SDS011;71437;42.018;21.354;2023-07-13T09:55:48;12.20;;;8.20;;
81938;SDS011;71437;42.018;21.354;2023-07-13T10:00:41;12.15;;;7.50;;
81938;SDS011;71437;42.018;21.354;2023-07-13T10:05:46;18.83;;;8.05;;
81938;SDS011;71437;42.018;21.354;2023-07-13T10:10:45;13.95;;;8.93;;
81938;SDS011;71437;42.018;21.354;2023-07-13T10:13:28;13.20;;;7.53;;
81938;SDS011;71437;42.018;21.354;2023-07-13T10:15:55;17.08;;;8.18;;
81938;SDS011;71437;42.018;21.354;2023-07-13T10:18:21;13.82;;;7.90;;
81938;SDS011;71437;42.018;21.354;2023-07-13T10:20:49;15.05;;;7.93;;
81938;SDS011;71437;42.018;21.354;2023-07-13T10:23:22;17.42;;;9.10;;
81938;SDS011;71437;42.018;21.354;2023-07-13T10:25:49;19.73;;;12.43;;
81938;SDS011;71437;42.018;21.354;2023-07-13T10:30:45;13.32;;;7.80;;
81938;SDS011;71437;42.018;21.354;2023-07-13T10:33:12;10.98;;;7.80;;
81938;SDS011;71437;42.018;21.354;2023-07-13T10:35:38;12.30;;;7.32;;
81938;SDS011;71437;42.018;21.354;2023-07-13T10:38:07;13.55;;;8.15;;
81938;SDS011;71437;42.018;21.354;2023-07-13T10:40:37;18.75;;;8.60;;
81938;SDS011;71437;42.018;21.354;2023-07-13T10:43:06;12.30;;;8.48;;
81938;SDS011;71437;42.018;21.354;2023-07-13T10:45:34;14.27;;;8.00;;
81938;SDS011;71437;42.018;21.354;2023-07-13T10:48:01;15.80;;;7.78;;
81938;SDS011;71437;42.018;21.354;2023-07-13T10:50:28;12.48;;;6.88;;
81938;SDS011;71437;42.018;21.354;2023-07-13T10:53:00;11.65;;;7.43;;
81938;SDS011;71437;42.018;21.354;2023-07-13T10:55:30;11.93;;;7.70;;
81938;SDS011;71437;42.018;21.354;2023-07-13T10:57:59;15.32;;;7.43;;
81938;SDS011;71437;42.018;21.354;2023-07-13T11:00:26;13.00;;;7.68;;
81938;SDS011;71437;42.018;21.354;2023-07-13T11:02:55;13.32;;;8.07;;
81938;SDS011;71437;42.018;21.354;2023-07-13T11:07:52;9.65;;;6.82;;
81938;SDS011;71437;42.018;21.354;2023-07-13T11:13:27;12.20;;;6.93;;
81938;SDS011;71437;42.018;21.354;2023-07-13T11:15:52;10.65;;;6.20;;
81938;SDS011;71437;42.018;21.354;2023-07-13T11:18:22;12.50;;;6.38;;
81938;SDS011;71437;42.018;21.354;2023-07-13T11:20:50;11.70;;;6.82;;
81938;SDS011;71437;42.018;21.354;2023-07-13T11:25:42;12.05;;;6.53;;
81938;SDS011;71437;42.018;21.354;2023-07-13T11:35:51;12.07;;;6.25;;
81938;SDS011;71437;42.018;21.354;2023-07-13T11:38:20;8.40;;;6.03;;
81938;SDS011;71437;42.018;21.354;2023-07-13T11:40:47;11.75;;;7.25;;
81938;SDS011;71437;42.018;21.354;2023-07-13T11:43:14;14.15;;;6.38;;
81938;SDS011;71437;42.018;21.354;2023-07-13T11:45:41;11.45;;;6.60;;
81938;SDS011;71437;42.018;21.354;2023-07-13T11:48:20;14.48;;;6.78;;
81938;SDS011;71437;42.018;21.354;2023-07-13T11:50:57;12.15;;;6.72;;
81938;SDS011;71437;42.018;21.354;2023-07-13T11:53:26;11.27;;;6.32;;
81938;SDS011;71437;42.018;21.354;2023-07-13T11:55:53;11.32;;;6.00;;
81938;SDS011;71437;42.018;21.354;2023-07-13T11:58:21;11.75;;;6.70;;
81938;SDS011;71437;42.018;21.354;2023-07-13T12:00:49;9.77;;;6.05;;
81938;SDS011;71437;42.018;21.354;2023-07-13T12:03:17;11.35;;;6.13;;
81938;SDS011;71437;42.018;21.354;2023-07-13T12:05:54;11.63;;;6.70;;
81938;SDS011;71437;42.018;21.354;2023-07-13T12:08:22;12.40;;;6.80;;
81938;SDS011;71437;42.018;21.354;2023-07-13T12:10:48;11.52;;;6.38;;
81938;SDS011;71437;42.018;21.354;2023-07-13T12:13:21;10.52;;;6.07;;
81938;SDS011;71437;42.018;21.354;2023-07-13T12:15:47;9.63;;;7.00;;
81938;SDS011;71437;42.018;21.354;2023-07-13T12:18:23;9.32;;;5.65;;
81938;SDS011;71437;42.018;21.354;2023-07-13T12:20:55;10.45;;;5.68;;
81938;SDS011;71437;42.018;21.354;2023-07-13T12:23:23;9.25;;;5.57;;
81938;SDS011;71437;42.018;21.354;2023-07-13T12:25:52;11.02;;;5.63;;
81938;SDS011;71437;42.018;21.354;2023-07-13T12:30:48;9.90;;;5.75;;
81938;SDS011;71437;42.018;21.354;2023-07-13T12:33:15;12.73;;;5.65;;
81938;SDS011;71437;42.018;21.354;2023-07-13T12:35:48;10.43;;;5.50;;
81938;SDS011;71437;42.018;21.354;2023-07-13T12:38:17;9.85;;;5.55;;
81938;SDS011;71437;42.018;21.354;2023-07-13T12:40:45;12.38;;;5.28;;
81938;SDS011;71437;42.018;21.354;2023-07-13T12:43:15;10.23;;;5.55;;
81938;SDS011;71437;42.018;21.354;2023-07-13T12:45:58;10.32;;;5.55;;
81938;SDS011;71437;42.018;21.354;2023-07-13T12:48:25;10.43;;;5.15;;
81938;SDS011;71437;42.018;21.354;2023-07-13T12:50:51;9.57;;;5.70;;
81938;SDS011;71437;42.018;21.354;2023-07-13T12:53:20;9.55;;;5.20;;
81938;SDS011;71437;42.018;21.354;2023-07-13T12:55:50;17.75;;;6.00;;
81938;SDS011;71437;42.018;21.354;2023-07-13T12:58:22;7.35;;;5.28;;
81938;SDS011;71437;42.018;21.354;2023-07-13T13:00:50;10.23;;;6.00;;
81938;SDS011;71437;42.018;21.354;2023-07-13T13:03:30;12.27;;;5.80;;
81938;SDS011;71437;42.018;21.354;2023-07-13T13:06:02;13.20;;;7.03;;
81938;SDS011;71437;42.018;21.354;2023-07-13T13:08:30;9.48;;;6.60;;
81938;SDS011;71437;42.018;21.354;2023-07-13T13:10:56;12.05;;;6.22;;
81938;SDS011;71437;42.018;21.354;2023-07-13T13:13:22;8.38;;;6.10;;
81938;SDS011;71437;42.018;21.354;2023-07-13T13:15:49;10.43;;;5.95;;
81938;SDS011;71437;42.018;21.354;2023-07-13T13:18:19;8.55;;;5.93;;
81938;SDS011;71437;42.018;21.354;2023-07-13T13:20:46;13.80;;;6.43;;
81938;SDS011;71437;42.018;21.354;2023-07-13T13:23:13;10.80;;;6.57;;
81938;SDS011;71437;42.018;21.354;2023-07-13T13:25:40;11.30;;;7.28;;
81938;SDS011;71437;42.018;21.354;2023-07-13T13:28:09;8.50;;;6.10;;
81938;SDS011;71437;42.018;21.354;2023-07-13T13:30:37;9.90;;;6.00;;
81938;SDS011;71437;42.018;21.354;2023-07-13T13:33:04;12.25;;;6.18;;
81938;SDS011;71437;42.018;21.354;2023-07-13T13:35:32;10.02;;;6.13;;
81938;SDS011;71437;42.018;21.354;2023-07-13T13:37:58;9.23;;;5.78;;
81938;SDS011;71437;42.018;21.354;2023-07-13T13:40:24;9.80;;;6.93;;
81938;SDS011;71437;42.018;21.354;2023-07-13T13:42:52;9.70;;;6.43;;
81938;SDS011;71437;42.018;21.354;2023-07-13T13:45:20;9.63;;;6.40;;
81938;SDS011;71437;42.018;21.354;2023-07-13T13:47:46;9.65;;;6.40;;
81938;SDS011;71437;42.018;21.354;2023-07-13T13:50:17;11.30;;;6.78;;
81938;SDS011;71437;42.018;21.354;2023-07-13T13:52:44;9.73;;;6.47;;
81938;SDS011;71437;42.018;21.354;2023-07-13T13:55:11;11.32;;;6.25;;
81938;SDS011;71437;42.018;21.354;2023-07-13T13:57:37;8.77;;;6.05;;
81938;SDS011;71437;42.018;21.354;2023-07-13T14:00:04;9.35;;;6.53;;
81938;SDS011;71437;42.018;21.354;2023-07-13T14:02:30;13.07;;;7.20;;
81938;SDS011;71437;42.018;21.354;2023-07-13T14:04:58;11.02;;;6.50;;
81938;SDS011;71437;42.018;21.354;2023-07-13T14:07:25;12.07;;;6.55;;
81938;SDS011;71437;42.018;21.354;2023-07-13T14:09:52;10.25;;;6.22;;
81938;SDS011;71437;42.018;21.354;2023-07-13T14:12:18;8.88;;;6.18;;
81938;SDS011;71437;42.018;21.354;2023-07-13T14:14:44;10.52;;;6.75;;
81938;SDS011;71437;42.018;21.354;2023-07-13T14:17:23;11.70;;;6.53;;
81938;SDS011;71437;42.018;21.354;2023-07-13T14:19:51;10.68;;;6.88;;
81938;SDS011;71437;42.018;21.354;2023-07-13T14:22:22;9.90;;;6.63;;
81938;SDS011;71437;42.018;21.354;2023-07-13T14:24:48;10.75;;;6.60;;
81938;SDS011;71437;42.018;21.354;2023-07-13T14:27:14;12.10;;;6.15;;
81938;SDS011;71437;42.018;21.354;2023-07-13T14:29:40;12.70;;;6.70;;
81938;SDS011;71437;42.018;21.354;2023-07-13T14:32:10;10.85;;;6.70;;
81938;SDS011;71437;42.018;21.354;2023-07-13T14:34:37;8.07;;;5.97;;
81938;SDS011;71437;42.018;21.354;2023-07-13T14:37:03;10.38;;;6.30;;
81938;SDS011;71437;42.018;21.354;2023-07-13T14:39:29;11.32;;;6.70;;
81938;SDS011;71437;42.018;21.354;2023-07-13T14:41:56;10.25;;;6.45;;
81938;SDS011;71437;42.018;21.354;2023-07-13T14:44:29;9.63;;;6.20;;
81938;SDS011;71437;42.018;21.354;2023-07-13T14:47:00;9.88;;;6.57;;
81938;SDS011;71437;42.018;21.354;2023-07-13T14:49:29;10.00;;;7.05;;
81938;SDS011;71437;42.018;21.354;2023-07-13T14:51:56;9.43;;;6.80;;
81938;SDS011;71437;42.018;21.354;2023-07-13T14:54:23;9.75;;;5.93;;
81938;SDS011;71437;42.018;21.354;2023-07-13T14:56:49;8.75;;;6.32;;
81938;SDS011;71437;42.018;21.354;2023-07-13T14:59:15;9.93;;;6.25;;
81938;SDS011;71437;42.018;21.354;2023-07-13T15:01:44;12.60;;;6.28;;
81938;SDS011;71437;42.018;21.354;2023-07-13T15:04:10;10.75;;;5.95;;
81938;SDS011;71437;42.018;21.354;2023-07-13T15:09:20;14.98;;;6.43;;
81938;SDS011;71437;42.018;21.354;2023-07-13T15:11:47;8.38;;;5.57;;
81938;SDS011;71437;42.018;21.354;2023-07-13T15:14:13;9.50;;;5.78;;
81938;SDS011;71437;42.018;21.354;2023-07-13T15:16:39;11.20;;;6.78;;
81938;SDS011;71437;42.018;21.354;2023-07-13T15:19:05;15.35;;;6.18;;
81938;SDS011;71437;42.018;21.354;2023-07-13T15:21:31;11.65;;;6.60;;